Darstellungsparameter: Aktuell verwendete Einstellungen:
Skalierung der Graphiken ... ?
xyx+y,   Skalierungsfaktor:      Skalierung: Modus: x, Faktor: 1
Darstellungszeitraum ... ?
Vom - - bis: - -   Zeitraum: 12.07.2016 - 11.08.2016
Min/Max/Avg-Anzeige ... ?
Zeige MMA aktuell
Zeige MMA Monat
Zeige MMA alles
Zeige --A aktuell
Zeige --A Monat
Zeige --A alles
Keine MMA-Anzeige
MMA:
Keine MMA-Graphiken
MMA-Basis: 12.07.2016 - 11.08.2016
Quicknavigation für Darstellung... ?
Tage:      1T, 2T, 3T, 5T -1T -2T -3T -5T +1T +2T +3T +5T
Wochen: 1W, 2W, 3W -1W -2W -3W +1W +2W +3W
Monate: 1M, 3M, 6M -1M -3M -6M +1M +3M +6M
Jahre:    1J, 3J, 5J, 10J -1J -3J -5J -10J +1J +3J +5J +10J
Nutze für die Darstellung ... ?
Originaldaten oder ...
Mittelwerte Minima Maxima auf...
Stundenbasis Tagesbasis Wochenbasis
Monatsbasis Jahresbasis      Datenbasis: Mittelwerte auf Stundenbasis
Darstellen als:
Statistik (Auto) Statistik J:M      Darstellung:
Zur Graphik,    zurück zur Übersicht aller Sensoren.
 
Tabellarische Datenbersicht: ?
 
Sensor: Nr:Datum:Temp:Feuchte:Taupunkt:
Aussen-T/F 1 12-07-2016 00:00:00 18.275 C 78.2500 % 14.42 C
2 12-07-2016 01:00:00 17.66667 C 78.3333 % 13.85 C
3 12-07-2016 02:00:00 16.36667 C 82.1667 % 13.32 C
4 12-07-2016 03:00:00 15.00833 C 86.8333 % 12.83 C
5 12-07-2016 04:00:00 14.475 C 89.5833 % 12.78 C
6 12-07-2016 05:00:00 14.29167 C 91.3333 % 12.9 C
7 12-07-2016 06:00:00 14.65833 C 91.4167 % 13.28 C
8 12-07-2016 07:00:00 15.29167 C 90.0833 % 13.68 C
9 12-07-2016 08:00:00 16.80833 C 86.0000 % 14.45 C
10 12-07-2016 09:00:00 18.39167 C 81.0000 % 15.07 C
11 12-07-2016 10:00:00 19.91667 C 72.5000 % 14.83 C
12 12-07-2016 11:00:00 20.975 C 67.5000 % 14.73 C
13 12-07-2016 12:00:00 21.88333 C 65.5000 % 15.13 C
14 12-07-2016 13:00:00 22.18333 C 63.5833 % 14.95 C
15 12-07-2016 14:00:00 23.125 C 55.8333 % 13.82 C
16 12-07-2016 15:00:00 24.875 C 49.2500 % 13.51 C
17 12-07-2016 16:00:00 24.65833 C 51.1667 % 13.9 C
18 12-07-2016 17:00:00 24.2 C 54.1667 % 14.35 C
19 12-07-2016 18:00:00 23.51667 C 58.0000 % 14.78 C
20 12-07-2016 19:00:00 22.08333 C 60.5833 % 14.11 C
21 12-07-2016 20:00:00 19.275 C 75.2500 % 14.79 C
22 12-07-2016 21:00:00 17.53333 C 81.9167 % 14.41 C
23 12-07-2016 22:00:00 16.5 C 90.0833 % 14.87 C
24 12-07-2016 23:00:00 15.56667 C 92.5833 % 14.37 C
25 13-07-2016 00:00:00 14.94167 C 93.5833 % 13.92 C
Sensor: Nr:Datum:Temp:Feuchte:Taupunkt:
Aussen-T/F 26 13-07-2016 01:00:00 14.05 C 93.7500 % 13.06 C
27 13-07-2016 02:00:00 13.59167 C 94.2500 % 12.69 C
28 13-07-2016 03:00:00 13.18333 C 94.9167 % 12.39 C
29 13-07-2016 04:00:00 12.58333 C 95.0000 % 11.8 C
30 13-07-2016 05:00:00 12.33333 C 95.3333 % 11.61 C
31 13-07-2016 06:00:00 12.85 C 96.0000 % 12.23 C
32 13-07-2016 07:00:00 13.10833 C 96.0000 % 12.49 C
33 13-07-2016 08:00:00 13.73333 C 96.0000 % 13.11 C
34 13-07-2016 09:00:00 15.20833 C 93.7500 % 14.21 C
35 13-07-2016 10:00:00 14.95833 C 88.3333 % 13.05 C
36 13-07-2016 11:00:00 13.15833 C 94.3333 % 12.27 C
37 13-07-2016 12:00:00 14.80833 C 94.5833 % 13.95 C
38 13-07-2016 13:00:00 15.8 C 91.5833 % 14.43 C
39 13-07-2016 14:00:00 16.99167 C 84.6667 % 14.39 C
40 13-07-2016 15:00:00 18.525 C 75.6667 % 14.15 C
41 13-07-2016 16:00:00 19.78333 C 72.7500 % 14.75 C
42 13-07-2016 17:00:00 15.29167 C 87.5000 % 13.23 C
43 13-07-2016 18:00:00 15.88333 C 90.0000 % 14.25 C
44 13-07-2016 19:00:00 16.38333 C 89.5833 % 14.67 C
45 13-07-2016 20:00:00 15.225 C 91.9167 % 13.92 C
46 13-07-2016 21:00:00 14.025 C 93.5833 % 13.01 C
47 13-07-2016 22:00:00 13.38333 C 94.5833 % 12.53 C
48 13-07-2016 23:00:00 13.31667 C 95.3333 % 12.59 C
49 14-07-2016 00:00:00 13.35833 C 96.0000 % 12.73 C
50 14-07-2016 01:00:00 12.83333 C 95.0833 % 12.07 C
Sensor: Nr:Datum:Temp:Feuchte:Taupunkt:
Aussen-T/F 51 14-07-2016 02:00:00 12.14167 C 95.0000 % 11.37 C
52 14-07-2016 03:00:00 11.525 C 95.0000 % 10.75 C
53 14-07-2016 04:00:00 11.33333 C 95.9167 % 10.71 C
54 14-07-2016 05:00:00 11.05833 C 96.0000 % 10.45 C
55 14-07-2016 06:00:00 11.025 C 96.0000 % 10.41 C
56 14-07-2016 07:00:00 11.425 C 96.0000 % 10.81 C
57 14-07-2016 08:00:00 12.55 C 95.0000 % 11.77 C
58 14-07-2016 09:00:00 14.05 C 86.5000 % 11.83 C
59 14-07-2016 10:00:00 15.18333 C 80.1667 % 11.79 C
60 14-07-2016 11:00:00 15.95833 C 72.6667 % 11.06 C
61 14-07-2016 12:00:00 16.54167 C 67.9167 % 10.6 C
62 14-07-2016 13:00:00 17.5 C 62.3333 % 10.23 C
63 14-07-2016 14:00:00 18.06667 C 60.3333 % 10.27 C
64 14-07-2016 15:00:00 18.225 C 59.1667 % 10.13 C
65 14-07-2016 16:00:00 17.88333 C 65.2500 % 11.27 C
66 14-07-2016 17:00:00 17.95 C 62.1667 % 10.61 C
67 14-07-2016 18:00:00 18.525 C 62.3333 % 11.19 C
68 14-07-2016 19:00:00 19.48333 C 59.0000 % 11.27 C
69 14-07-2016 20:00:00 17.45 C 69.8333 % 11.89 C
70 14-07-2016 21:00:00 15.43333 C 78.3333 % 11.68 C
71 14-07-2016 22:00:00 14.8 C 82.3333 % 11.82 C
72 14-07-2016 23:00:00 14.4 C 77.4167 % 10.5 C
73 15-07-2016 00:00:00 13.4 C 80.8333 % 10.18 C
74 15-07-2016 01:00:00 12.95 C 84.3333 % 10.37 C
75 15-07-2016 02:00:00 12.90833 C 86.4167 % 10.7 C
Sensor: Nr:Datum:Temp:Feuchte:Taupunkt:
Aussen-T/F 76 15-07-2016 03:00:00 12.15 C 87.8333 % 10.2 C
77 15-07-2016 04:00:00 11.79167 C 88.6667 % 9.98 C
78 15-07-2016 05:00:00 11.99167 C 87.8333 % 10.04 C
79 15-07-2016 06:00:00 12.275 C 87.5000 % 10.26 C
80 15-07-2016 07:00:00 12.50833 C 85.9167 % 10.22 C
81 15-07-2016 08:00:00 13.04167 C 85.7500 % 10.71 C
82 15-07-2016 09:00:00 14.39167 C 81.4167 % 11.25 C
83 15-07-2016 10:00:00 15.15 C 77.0000 % 11.15 C
84 15-07-2016 11:00:00 16.45 C 69.1667 % 10.79 C
85 15-07-2016 12:00:00 17.74167 C 62.7500 % 10.55 C
86 15-07-2016 13:00:00 18.48333 C 60.9167 % 10.81 C
87 15-07-2016 14:00:00 19.26667 C 59.2500 % 11.13 C
88 15-07-2016 15:00:00 19.95833 C 60.5000 % 12.09 C
89 15-07-2016 16:00:00 20.59167 C 58.9167 % 12.28 C
90 15-07-2016 17:00:00 21.11667 C 61.7500 % 13.49 C
91 15-07-2016 18:00:00 22.125 C 49.6667 % 11.12 C
92 15-07-2016 19:00:00 22.375 C 49.6667 % 11.35 C
93 15-07-2016 20:00:00 19.70833 C 66.3333 % 13.26 C
94 15-07-2016 21:00:00 16.86667 C 76.1667 % 12.65 C
95 15-07-2016 22:00:00 15.15 C 81.6667 % 12.04 C
96 15-07-2016 23:00:00 13.58333 C 86.7500 % 11.42 C
97 16-07-2016 00:00:00 12.66667 C 88.9167 % 10.89 C
98 16-07-2016 01:00:00 12.125 C 90.9167 % 10.69 C
99 16-07-2016 02:00:00 11.6 C 92.0000 % 10.35 C
100 16-07-2016 03:00:00 11.23333 C 93.2500 % 10.18 C
Sensor: Nr:Datum:Temp:Feuchte:Taupunkt:
Aussen-T/F 101 16-07-2016 04:00:00 11.6 C 94.0000 % 10.67 C
102 16-07-2016 05:00:00 11.88333 C 93.5000 % 10.87 C
103 16-07-2016 06:00:00 12.15 C 93.2500 % 11.09 C
104 16-07-2016 07:00:00 13.125 C 90.9167 % 11.68 C
105 16-07-2016 08:00:00 14.325 C 87.9167 % 12.35 C
106 16-07-2016 09:00:00 15.81667 C 83.4167 % 13.01 C
107 16-07-2016 10:00:00 17.38333 C 78.0833 % 13.53 C
108 16-07-2016 11:00:00 18.73333 C 75.5000 % 14.32 C
109 16-07-2016 12:00:00 20.075 C 67.0000 % 13.76 C
110 16-07-2016 13:00:00 21.23333 C 66.5000 % 14.75 C
111 16-07-2016 14:00:00 21.25 C 69.5000 % 15.45 C
112 16-07-2016 15:00:00 21.65833 C 69.2500 % 15.78 C
113 16-07-2016 16:00:00 22.225 C 73.5833 % 17.28 C
114 16-07-2016 17:00:00 21.55 C 78.9167 % 17.74 C
115 16-07-2016 18:00:00 21.15 C 80.5000 % 17.66 C
116 16-07-2016 19:00:00 20.525 C 82.8333 % 17.51 C
117 16-07-2016 20:00:00 20.30833 C 82.3333 % 17.2 C
118 16-07-2016 21:00:00 19.1 C 84.1667 % 16.36 C
119 16-07-2016 22:00:00 18.35833 C 86.8333 % 16.13 C
120 16-07-2016 23:00:00 17.575 C 90.0000 % 15.92 C
121 17-07-2016 00:00:00 16.48333 C 92.1667 % 15.21 C
122 17-07-2016 01:00:00 16.56667 C 94.0000 % 15.6 C
123 17-07-2016 02:00:00 17.04167 C 93.8333 % 16.04 C
124 17-07-2016 03:00:00 17.21667 C 93.0000 % 16.07 C
125 17-07-2016 04:00:00 17.075 C 93.6667 % 16.05 C
Sensor: Nr:Datum:Temp:Feuchte:Taupunkt:
Aussen-T/F 126 17-07-2016 05:00:00 16.48333 C 93.8333 % 15.49 C
127 17-07-2016 06:00:00 16.83333 C 95.0000 % 16.03 C
128 17-07-2016 07:00:00 17.56667 C 94.5833 % 16.69 C
129 17-07-2016 08:00:00 18.78333 C 91.2500 % 17.33 C
130 17-07-2016 09:00:00 20.25 C 86.6667 % 17.95 C
131 17-07-2016 10:00:00 22.40833 C 78.1667 % 18.42 C
132 17-07-2016 11:00:00 23.7 C 71.9167 % 18.33 C
133 17-07-2016 12:00:00 24.35 C 74.3333 % 19.49 C
134 17-07-2016 13:00:00 24.38333 C 73.5833 % 19.36 C
135 17-07-2016 14:00:00 25.38333 C 74.6667 % 20.55 C
136 17-07-2016 15:00:00 25.53333 C 70.4167 % 19.75 C
137 17-07-2016 16:00:00 26.575 C 61.0833 % 18.46 C
138 17-07-2016 17:00:00 26.34167 C 59.4167 % 17.8 C
139 17-07-2016 18:00:00 25.89167 C 59.1667 % 17.31 C
140 17-07-2016 19:00:00 25.15 C 63.3333 % 17.69 C
141 17-07-2016 20:00:00 24.8 C 66.0833 % 18.03 C
142 17-07-2016 21:00:00 22.475 C 77.7500 % 18.4 C
143 17-07-2016 22:00:00 20.85833 C 84.7500 % 18.2 C
144 17-07-2016 23:00:00 20.19167 C 87.2500 % 18 C
145 18-07-2016 00:00:00 19.43333 C 89.0833 % 17.59 C
146 18-07-2016 01:00:00 18.75833 C 91.3333 % 17.32 C
147 18-07-2016 02:00:00 18.11667 C 92.4167 % 16.87 C
148 18-07-2016 03:00:00 17.63333 C 93.3333 % 16.54 C
149 18-07-2016 04:00:00 17.34167 C 93.9167 % 16.35 C
150 18-07-2016 05:00:00 16.58333 C 93.8333 % 15.59 C
Sensor: Nr:Datum:Temp:Feuchte:Taupunkt:
Aussen-T/F 151 18-07-2016 06:00:00 16.26667 C 94.7500 % 15.42 C
152 18-07-2016 07:00:00 16.35 C 95.0000 % 15.55 C
153 18-07-2016 08:00:00 16.95833 C 95.4167 % 16.22 C
154 18-07-2016 09:00:00 18.11667 C 95.4167 % 17.37 C
155 18-07-2016 10:00:00 20.675 C 87.4167 % 18.51 C
156 18-07-2016 11:00:00 23.03333 C 73.8333 % 18.11 C
157 18-07-2016 12:00:00 23.84167 C 66.7500 % 17.28 C
158 18-07-2016 13:00:00 24.39167 C 63.7500 % 17.08 C
159 18-07-2016 14:00:00 25.325 C 53.5000 % 15.2 C
160 18-07-2016 15:00:00 27.06667 C 50.5000 % 15.91 C
161 18-07-2016 16:00:00 29 C 44.7500 % 15.78 C
162 18-07-2016 17:00:00 29.81667 C 44.7500 % 16.51 C
163 18-07-2016 18:00:00 30.10833 C 43.3333 % 16.27 C
164 18-07-2016 19:00:00 29.23333 C 51.1667 % 18.1 C
165 18-07-2016 20:00:00 25.39167 C 64.0833 % 18.11 C
166 18-07-2016 21:00:00 22.30833 C 71.0000 % 16.8 C
167 18-07-2016 22:00:00 20.10833 C 77.8333 % 16.12 C
168 18-07-2016 23:00:00 18.55833 C 82.2500 % 15.47 C
169 19-07-2016 00:00:00 17.49167 C 85.7500 % 15.08 C
170 19-07-2016 01:00:00 16.675 C 88.4167 % 14.75 C
171 19-07-2016 02:00:00 16.1 C 90.3333 % 14.52 C
172 19-07-2016 03:00:00 15.475 C 92.4167 % 14.25 C
173 19-07-2016 04:00:00 15.04167 C 93.2500 % 13.96 C
174 19-07-2016 05:00:00 14.61667 C 94.0000 % 13.66 C
175 19-07-2016 06:00:00 14.61667 C 94.8333 % 13.8 C
Sensor: Nr:Datum:Temp:Feuchte:Taupunkt:
Aussen-T/F 176 19-07-2016 07:00:00 14.98333 C 95.0000 % 14.19 C
177 19-07-2016 08:00:00 15.89167 C 95.0000 % 15.09 C
178 19-07-2016 09:00:00 17.25833 C 94.7500 % 16.41 C
179 19-07-2016 10:00:00 19.65 C 91.5833 % 18.24 C
180 19-07-2016 11:00:00 22.2 C 85.0833 % 19.57 C
181 19-07-2016 12:00:00 24.98333 C 68.4167 % 18.76 C
182 19-07-2016 13:00:00 26.69167 C 57.9167 % 17.72 C
183 19-07-2016 14:00:00 26.29167 C 67.6667 % 19.83 C
184 19-07-2016 15:00:00 26.46667 C 69.2500 % 20.37 C
185 19-07-2016 16:00:00 29.76667 C 62.8333 % 21.92 C
186 19-07-2016 17:00:00 31.61667 C 56.0000 % 21.76 C
187 19-07-2016 18:00:00 32.075 C 53.1667 % 21.33 C
188 19-07-2016 19:00:00 29.95 C 58.2500 % 20.85 C
189 19-07-2016 20:00:00 26.71667 C 62.3333 % 18.91 C
190 19-07-2016 21:00:00 23.65 C 67.6667 % 17.32 C
191 19-07-2016 22:00:00 21.04167 C 73.5000 % 16.12 C
192 19-07-2016 23:00:00 19.55 C 78.4167 % 15.69 C
193 20-07-2016 00:00:00 18.25 C 83.7500 % 15.45 C
194 20-07-2016 01:00:00 17.325 C 87.4167 % 15.21 C
195 20-07-2016 02:00:00 16.71667 C 89.3333 % 14.95 C
196 20-07-2016 03:00:00 16.075 C 91.1667 % 14.63 C
197 20-07-2016 04:00:00 15.50833 C 92.5000 % 14.3 C
198 20-07-2016 05:00:00 15.01667 C 93.4167 % 13.96 C
199 20-07-2016 06:00:00 14.775 C 94.0833 % 13.83 C
200 20-07-2016 07:00:00 15.2 C 95.0000 % 14.4 C
Sensor: Nr:Datum:Temp:Feuchte:Taupunkt:
Aussen-T/F 201 20-07-2016 08:00:00 16.14167 C 95.3333 % 15.39 C
202 20-07-2016 09:00:00 17.85833 C 95.0000 % 17.05 C
203 20-07-2016 10:00:00 20.58333 C 90.0000 % 18.88 C
204 20-07-2016 11:00:00 23.99167 C 78.5000 % 20.02 C
205 20-07-2016 12:00:00 27.03333 C 65.8333 % 20.09 C
206 20-07-2016 13:00:00 29.05 C 58.2500 % 20.01 C
207 20-07-2016 14:00:00 30.20833 C 55.5000 % 20.31 C
208 20-07-2016 15:00:00 32.19167 C 50.1667 % 20.5 C
209 20-07-2016 16:00:00 34.70833 C 45.3333 % 21.14 C
210 20-07-2016 17:00:00 34.75 C 51.2500 % 23.19 C
211 20-07-2016 18:00:00 32.93333 C 54.2500 % 22.46 C
212 20-07-2016 19:00:00 30.2 C 56.7500 % 20.66 C
213 20-07-2016 20:00:00 26.63333 C 63.8333 % 19.22 C
214 20-07-2016 21:00:00 25.88333 C 67.0833 % 19.3 C
215 20-07-2016 22:00:00 25.25 C 70.0833 % 19.4 C
216 20-07-2016 23:00:00 23.9 C 73.2500 % 18.82 C
217 21-07-2016 00:00:00 23.5 C 74.0000 % 18.6 C
218 21-07-2016 01:00:00 22.8 C 77.2500 % 18.61 C
219 21-07-2016 02:00:00 22.39167 C 77.8333 % 18.33 C
220 21-07-2016 03:00:00 22.5 C 77.0833 % 18.28 C
221 21-07-2016 04:00:00 22.64167 C 76.9167 % 18.39 C
222 21-07-2016 05:00:00 21.76667 C 79.8333 % 18.13 C
223 21-07-2016 06:00:00 20.55833 C 84.5833 % 17.87 C
224 21-07-2016 07:00:00 20.075 C 86.2500 % 17.71 C
225 21-07-2016 08:00:00 19.28333 C 91.5833 % 17.88 C
Sensor: Nr:Datum:Temp:Feuchte:Taupunkt:
Aussen-T/F 226 21-07-2016 09:00:00 19.21667 C 94.4167 % 18.3 C
227 21-07-2016 10:00:00 19.85 C 95.0000 % 19.02 C
228 21-07-2016 11:00:00 20.69167 C 94.6667 % 19.8 C
229 21-07-2016 12:00:00 22.24167 C 90.8333 % 20.67 C
230 21-07-2016 13:00:00 23.34167 C 83.3333 % 20.35 C
231 21-07-2016 14:00:00 24.89167 C 75.2500 % 20.21 C
232 21-07-2016 15:00:00 25.84167 C 77.0833 % 21.52 C
233 21-07-2016 16:00:00 23.1 C 83.3333 % 20.12 C
234 21-07-2016 17:00:00 20.71667 C 90.5833 % 19.12 C
235 21-07-2016 18:00:00 19.76667 C 93.5833 % 18.7 C
236 21-07-2016 19:00:00 19.6 C 94.5833 % 18.71 C
237 21-07-2016 20:00:00 19.00833 C 94.8333 % 18.16 C
238 21-07-2016 21:00:00 18.91667 C 95.2500 % 18.14 C
239 21-07-2016 22:00:00 18.64167 C 95.8333 % 17.96 C
240 21-07-2016 23:00:00 18.4 C 96.0000 % 17.75 C
241 22-07-2016 00:00:00 18.24167 C 96.0000 % 17.59 C
242 22-07-2016 01:00:00 18.05 C 96.0000 % 17.4 C
243 22-07-2016 02:00:00 17.95 C 96.1667 % 17.33 C
244 22-07-2016 03:00:00 17.35 C 96.0000 % 16.71 C
245 22-07-2016 04:00:00 17.00833 C 96.3333 % 16.42 C
246 22-07-2016 05:00:00 16.71667 C 96.5000 % 16.16 C
247 22-07-2016 06:00:00 16.675 C 96.9167 % 16.18 C
248 22-07-2016 07:00:00 17.34167 C 97.0000 % 16.86 C
249 22-07-2016 08:00:00 17.58333 C 97.0000 % 17.1 C
250 22-07-2016 09:00:00 18.20833 C 97.0000 % 17.72 C
Sensor: Nr:Datum:Temp:Feuchte:Taupunkt:
Aussen-T/F 251 22-07-2016 10:00:00 19.36667 C 97.0000 % 18.88 C
252 22-07-2016 11:00:00 21.03333 C 96.5833 % 20.47 C
253 22-07-2016 12:00:00 23.06667 C 92.4167 % 21.77 C
254 22-07-2016 13:00:00 24.75833 C 85.3333 % 22.13 C
255 22-07-2016 14:00:00 26.55 C 73.3333 % 21.38 C
256 22-07-2016 15:00:00 27.55 C 73.6667 % 22.42 C
257 22-07-2016 16:00:00 28.64167 C 66.0000 % 21.66 C
258 22-07-2016 17:00:00 27.01667 C 66.5000 % 20.24 C
259 22-07-2016 18:00:00 25.2 C 77.1667 % 20.91 C
260 22-07-2016 19:00:00 22.74167 C 84.0000 % 19.9 C
261 22-07-2016 20:00:00 21.64167 C 87.5000 % 19.48 C
262 22-07-2016 21:00:00 20.71667 C 88.0000 % 18.66 C
263 22-07-2016 22:00:00 19.98333 C 88.6667 % 18.05 C
264 22-07-2016 23:00:00 19.84167 C 89.3333 % 18.03 C
265 23-07-2016 00:00:00 19.475 C 90.8333 % 17.94 C
266 23-07-2016 01:00:00 19.16667 C 92.4167 % 17.91 C
267 23-07-2016 02:00:00 18.90833 C 93.0000 % 17.75 C
268 23-07-2016 03:00:00 18.60833 C 93.0000 % 17.45 C
269 23-07-2016 04:00:00 18.375 C 93.2500 % 17.27 C
270 23-07-2016 05:00:00 18.33333 C 94.1667 % 17.38 C
271 23-07-2016 06:00:00 18.35833 C 95.0000 % 17.54 C
272 23-07-2016 07:00:00 18.69167 C 95.4167 % 17.94 C
273 23-07-2016 08:00:00 19.15833 C 95.4167 % 18.41 C
274 23-07-2016 09:00:00 19.925 C 94.7500 % 19.06 C
275 23-07-2016 10:00:00 20.625 C 92.5833 % 19.38 C
Sensor: Nr:Datum:Temp:Feuchte:Taupunkt:
Aussen-T/F 276 23-07-2016 11:00:00 21.11667 C 91.3333 % 19.65 C
277 23-07-2016 12:00:00 22 C 86.5833 % 19.66 C
278 23-07-2016 13:00:00 22.98333 C 81.7500 % 19.69 C
279 23-07-2016 14:00:00 24.1 C 77.0000 % 19.81 C
280 23-07-2016 15:00:00 23.44167 C 79.6667 % 19.72 C
281 23-07-2016 16:00:00 22.61667 C 85.0833 % 19.98 C
282 23-07-2016 17:00:00 20.60833 C 92.6667 % 19.38 C
283 23-07-2016 18:00:00 20.78333 C 94.7500 % 19.91 C
284 23-07-2016 19:00:00 21.075 C 95.0000 % 20.24 C
285 23-07-2016 20:00:00 20.64167 C 95.0833 % 19.83 C
286 23-07-2016 21:00:00 20.25833 C 95.5833 % 19.53 C
287 23-07-2016 22:00:00 19.625 C 95.9167 % 18.96 C
288 23-07-2016 23:00:00 19.36667 C 96.0000 % 18.71 C
289 24-07-2016 00:00:00 19.2 C 96.0000 % 18.55 C
290 24-07-2016 01:00:00 19.13333 C 96.4167 % 18.55 C
291 24-07-2016 02:00:00 19.1 C 96.6667 % 18.56 C
292 24-07-2016 03:00:00 19.10833 C 97.0000 % 18.62 C
293 24-07-2016 04:00:00 19.03333 C 97.0000 % 18.55 C
294 24-07-2016 05:00:00 18.60833 C 96.8333 % 18.1 C
295 24-07-2016 06:00:00 18.66667 C 97.0000 % 18.18 C
296 24-07-2016 07:00:00 19.01667 C 97.0000 % 18.53 C
297 24-07-2016 08:00:00 19.41667 C 97.0000 % 18.93 C
298 24-07-2016 09:00:00 19.70833 C 96.8333 % 19.19 C
299 24-07-2016 10:00:00 20.34167 C 93.8333 % 19.31 C
300 24-07-2016 11:00:00 21.51667 C 89.6667 % 19.75 C
Sensor: Nr:Datum:Temp:Feuchte:Taupunkt:
Aussen-T/F 301 24-07-2016 12:00:00 23.06667 C 81.5833 % 19.74 C
302 24-07-2016 13:00:00 23.76667 C 80.0833 % 20.12 C
303 24-07-2016 14:00:00 24.55833 C 75.4167 % 19.92 C
304 24-07-2016 15:00:00 26.15833 C 67.6667 % 19.7 C
305 24-07-2016 16:00:00 27.88333 C 63.5000 % 20.31 C
306 24-07-2016 17:00:00 28.375 C 60.8333 % 20.08 C
307 24-07-2016 18:00:00 28.35 C 61.5000 % 20.23 C
308 24-07-2016 19:00:00 27.69167 C 67.5833 % 21.14 C
309 24-07-2016 20:00:00 24.725 C 78.3333 % 20.7 C
310 24-07-2016 21:00:00 21.95 C 84.2500 % 19.17 C
311 24-07-2016 22:00:00 20.7 C 88.0833 % 18.66 C
312 24-07-2016 23:00:00 20.18333 C 90.9167 % 18.65 C
313 25-07-2016 00:00:00 19.78333 C 91.8333 % 18.42 C
314 25-07-2016 01:00:00 19.65833 C 91.9167 % 18.31 C
315 25-07-2016 02:00:00 18.81667 C 92.4167 % 17.56 C
316 25-07-2016 03:00:00 18.33333 C 93.9167 % 17.34 C
317 25-07-2016 04:00:00 17.88333 C 94.4167 % 16.97 C
318 25-07-2016 05:00:00 17.575 C 95.0000 % 16.76 C
319 25-07-2016 06:00:00 17.39167 C 95.2500 % 16.62 C
320 25-07-2016 07:00:00 18.18333 C 95.7500 % 17.49 C
321 25-07-2016 08:00:00 19.15833 C 94.4167 % 18.24 C
322 25-07-2016 09:00:00 20.20833 C 90.5833 % 18.62 C
323 25-07-2016 10:00:00 21.71667 C 81.4167 % 18.39 C
324 25-07-2016 11:00:00 23.11667 C 72.7500 % 17.96 C
325 25-07-2016 12:00:00 24.08333 C 70.1667 % 18.31 C
Sensor: Nr:Datum:Temp:Feuchte:Taupunkt:
Aussen-T/F 326 25-07-2016 13:00:00 24.41667 C 73.1667 % 19.3 C
327 25-07-2016 14:00:00 25.15 C 69.3333 % 19.14 C
328 25-07-2016 15:00:00 26.025 C 66.0833 % 19.2 C
329 25-07-2016 16:00:00 26.40833 C 61.5833 % 18.43 C
330 25-07-2016 17:00:00 25.93333 C 66.1667 % 19.13 C
331 25-07-2016 18:00:00 24.93333 C 74.3333 % 20.05 C
332 25-07-2016 19:00:00 25.05833 C 73.8333 % 20.06 C
333 25-07-2016 20:00:00 25.28333 C 66.8333 % 18.67 C
334 25-07-2016 21:00:00 22.55833 C 80.3333 % 19 C
335 25-07-2016 22:00:00 21.55833 C 83.7500 % 18.69 C
336 25-07-2016 23:00:00 20.425 C 85.3333 % 17.88 C
337 26-07-2016 00:00:00 19.525 C 88.4167 % 17.56 C
338 26-07-2016 01:00:00 18.71667 C 91.3333 % 17.27 C
339 26-07-2016 02:00:00 18.15833 C 93.0000 % 17.01 C
340 26-07-2016 03:00:00 18.025 C 93.4167 % 16.95 C
341 26-07-2016 04:00:00 17.89167 C 94.0000 % 16.91 C
342 26-07-2016 05:00:00 17.55 C 94.0833 % 16.59 C
343 26-07-2016 06:00:00 17.59167 C 95.0000 % 16.78 C
344 26-07-2016 07:00:00 18.49167 C 94.9167 % 17.66 C
345 26-07-2016 08:00:00 19.54167 C 91.5000 % 18.12 C
346 26-07-2016 09:00:00 20.63333 C 88.0833 % 18.59 C
347 26-07-2016 10:00:00 20.7 C 87.4167 % 18.53 C
348 26-07-2016 11:00:00 20.85833 C 86.6667 % 18.55 C
349 26-07-2016 12:00:00 22.19167 C 82.0000 % 18.97 C
350 26-07-2016 13:00:00 23.28333 C 78.5000 % 19.33 C
Sensor: Nr:Datum:Temp:Feuchte:Taupunkt:
Aussen-T/F 351 26-07-2016 14:00:00 24.18333 C 75.0000 % 19.47 C
352 26-07-2016 15:00:00 24.15833 C 73.2500 % 19.07 C
353 26-07-2016 16:00:00 23.04167 C 77.0000 % 18.79 C
354 26-07-2016 17:00:00 21.73333 C 80.0833 % 18.15 C
355 26-07-2016 18:00:00 22.625 C 76.5000 % 18.28 C
356 26-07-2016 19:00:00 21.65833 C 79.6667 % 17.99 C
357 26-07-2016 20:00:00 20.825 C 81.2500 % 17.49 C
358 26-07-2016 21:00:00 18.875 C 87.1667 % 16.69 C
359 26-07-2016 22:00:00 17.44167 C 91.1667 % 15.99 C
360 26-07-2016 23:00:00 17.15 C 92.5833 % 15.94 C
361 27-07-2016 00:00:00 16.63333 C 93.0000 % 15.5 C
362 27-07-2016 01:00:00 16.03333 C 93.6667 % 15.01 C
363 27-07-2016 02:00:00 16.08333 C 94.8333 % 15.25 C
364 27-07-2016 03:00:00 15.98333 C 95.0000 % 15.18 C
365 27-07-2016 04:00:00 15.775 C 95.2500 % 15.02 C
366 27-07-2016 05:00:00 15.76667 C 95.4167 % 15.04 C
367 27-07-2016 06:00:00 15.51667 C 95.6667 % 14.83 C
368 27-07-2016 07:00:00 15.94167 C 96.0000 % 15.3 C
369 27-07-2016 08:00:00 16.5 C 95.0000 % 15.7 C
370 27-07-2016 09:00:00 17.60833 C 91.7500 % 16.25 C
371 27-07-2016 10:00:00 18.90833 C 86.5833 % 16.62 C
372 27-07-2016 11:00:00 20.625 C 78.8333 % 16.82 C
373 27-07-2016 12:00:00 22.1 C 73.2500 % 17.09 C
374 27-07-2016 13:00:00 23.10833 C 67.7500 % 16.82 C
375 27-07-2016 14:00:00 23.83333 C 59.5000 % 15.47 C
Sensor: Nr:Datum:Temp:Feuchte:Taupunkt:
Aussen-T/F 376 27-07-2016 15:00:00 23.85 C 63.4167 % 16.48 C
377 27-07-2016 16:00:00 23.875 C 62.4167 % 16.26 C
378 27-07-2016 17:00:00 25.75833 C 57.2500 % 16.67 C
379 27-07-2016 18:00:00 25.1 C 59.4167 % 16.64 C
380 27-07-2016 19:00:00 22.81667 C 70.0833 % 17.08 C
381 27-07-2016 20:00:00 20.59167 C 77.0000 % 16.42 C
382 27-07-2016 21:00:00 20.00833 C 77.8333 % 16.02 C
383 27-07-2016 22:00:00 19.50833 C 82.2500 % 16.4 C
384 27-07-2016 23:00:00 19.19167 C 83.5833 % 16.34 C
385 28-07-2016 00:00:00 18.575 C 84.4167 % 15.9 C
386 28-07-2016 01:00:00 18.05 C 86.2500 % 15.72 C
387 28-07-2016 02:00:00 17.65833 C 87.8333 % 15.62 C
388 28-07-2016 03:00:00 17.55833 C 88.6667 % 15.67 C
389 28-07-2016 04:00:00 17.15 C 89.0000 % 15.32 C
390 28-07-2016 05:00:00 16.60833 C 90.0000 % 14.96 C
391 28-07-2016 06:00:00 16.43333 C 91.9167 % 15.12 C
392 28-07-2016 07:00:00 17.09167 C 92.7500 % 15.91 C
393 28-07-2016 08:00:00 18.45 C 88.8333 % 16.57 C
394 28-07-2016 09:00:00 20.05833 C 84.0833 % 17.29 C
395 28-07-2016 10:00:00 21.16667 C 80.0000 % 17.58 C
396 28-07-2016 11:00:00 21.85833 C 75.5833 % 17.35 C
397 28-07-2016 12:00:00 22.91667 C 71.4167 % 17.47 C
398 28-07-2016 13:00:00 23.475 C 68.4167 % 17.33 C
399 28-07-2016 14:00:00 24.30833 C 65.5000 % 17.43 C
400 28-07-2016 15:00:00 23.9 C 68.5000 % 17.75 C
Sensor: Nr:Datum:Temp:Feuchte:Taupunkt:
Aussen-T/F 401 28-07-2016 16:00:00 22.64167 C 78.5833 % 18.73 C
402 28-07-2016 17:00:00 23.05 C 81.4167 % 19.69 C
403 28-07-2016 18:00:00 23.14167 C 77.5000 % 18.99 C
404 28-07-2016 19:00:00 22.49167 C 80.0833 % 18.88 C
405 28-07-2016 20:00:00 21.24167 C 84.5000 % 18.52 C
406 28-07-2016 21:00:00 19.71667 C 88.2500 % 17.72 C
407 28-07-2016 22:00:00 18.825 C 91.0000 % 17.32 C
408 28-07-2016 23:00:00 18.475 C 92.6667 % 17.26 C
409 29-07-2016 00:00:00 18.26667 C 92.7500 % 17.07 C
410 29-07-2016 01:00:00 17.50833 C 92.0000 % 16.19 C
411 29-07-2016 02:00:00 16.39167 C 92.4167 % 15.16 C
412 29-07-2016 03:00:00 15.64167 C 93.5000 % 14.6 C
413 29-07-2016 04:00:00 16.23333 C 94.4167 % 15.34 C
414 29-07-2016 05:00:00 16.675 C 94.0000 % 15.7 C
415 29-07-2016 06:00:00 16.68333 C 94.1667 % 15.74 C
416 29-07-2016 07:00:00 17.03333 C 95.0000 % 16.23 C
417 29-07-2016 08:00:00 17.475 C 94.1667 % 16.53 C
418 29-07-2016 09:00:00 18.55 C 89.1667 % 16.73 C
419 29-07-2016 10:00:00 19.29167 C 87.8333 % 17.22 C
420 29-07-2016 11:00:00 19.58333 C 90.9167 % 18.06 C
421 29-07-2016 12:00:00 21.025 C 87.7500 % 18.91 C
422 29-07-2016 13:00:00 22.725 C 78.9167 % 18.88 C
423 29-07-2016 14:00:00 24.29167 C 70.8333 % 18.66 C
424 29-07-2016 15:00:00 23.725 C 72.2500 % 18.43 C
425 29-07-2016 16:00:00 24.16667 C 69.8333 % 18.31 C
Sensor: Nr:Datum:Temp:Feuchte:Taupunkt:
Aussen-T/F 426 29-07-2016 17:00:00 23.99167 C 71.1667 % 18.45 C
427 29-07-2016 18:00:00 23.95833 C 71.1667 % 18.41 C
428 29-07-2016 19:00:00 22.68333 C 75.3333 % 18.09 C
429 29-07-2016 20:00:00 22.08333 C 75.9167 % 17.64 C
430 29-07-2016 21:00:00 19.88333 C 83.4167 % 16.99 C
431 29-07-2016 22:00:00 18.85833 C 87.8333 % 16.8 C
432 29-07-2016 23:00:00 18.725 C 88.4167 % 16.77 C
433 30-07-2016 00:00:00 18.8 C 88.9167 % 16.93 C
434 30-07-2016 01:00:00 18.8 C 89.1667 % 16.98 C
435 30-07-2016 02:00:00 18.63333 C 90.4167 % 17.03 C
436 30-07-2016 03:00:00 18.14167 C 92.5833 % 16.92 C
437 30-07-2016 04:00:00 18.1 C 93.1667 % 16.98 C
438 30-07-2016 05:00:00 17.60833 C 93.0000 % 16.46 C
439 30-07-2016 06:00:00 17.23333 C 93.8333 % 16.23 C
440 30-07-2016 07:00:00 17.875 C 94.5000 % 16.98 C
441 30-07-2016 08:00:00 18.79167 C 90.9167 % 17.28 C
442 30-07-2016 09:00:00 19.875 C 84.8333 % 17.25 C
443 30-07-2016 10:00:00 20.99167 C 79.2500 % 17.26 C
444 30-07-2016 11:00:00 21.55 C 69.8333 % 15.81 C
445 30-07-2016 12:00:00 22.31667 C 64.2500 % 15.24 C
446 30-07-2016 13:00:00 22.925 C 62.7500 % 15.45 C
447 30-07-2016 14:00:00 23.55 C 62.5833 % 15.99 C
448 30-07-2016 15:00:00 23.8 C 65.3333 % 16.91 C
449 30-07-2016 16:00:00 24.73333 C 62.1667 % 17 C
450 30-07-2016 17:00:00 25.06667 C 57.5000 % 16.09 C
Sensor: Nr:Datum:Temp:Feuchte:Taupunkt:
Aussen-T/F 451 30-07-2016 18:00:00 24.025 C 63.2500 % 16.61 C
452 30-07-2016 19:00:00 23.34167 C 65.7500 % 16.57 C
453 30-07-2016 20:00:00 21.1 C 76.3333 % 16.77 C
454 30-07-2016 21:00:00 19.28333 C 80.9167 % 15.93 C
455 30-07-2016 22:00:00 18.63333 C 83.7500 % 15.83 C
456 30-07-2016 23:00:00 18.09167 C 84.5833 % 15.45 C
457 31-07-2016 00:00:00 17.425 C 88.2500 % 15.46 C
458 31-07-2016 01:00:00 16.6 C 89.9167 % 14.94 C
459 31-07-2016 02:00:00 16.375 C 91.9167 % 15.06 C
460 31-07-2016 03:00:00 16.08333 C 92.0833 % 14.8 C
461 31-07-2016 04:00:00 15.9 C 92.7500 % 14.73 C
462 31-07-2016 05:00:00 15.775 C 93.0000 % 14.65 C
463 31-07-2016 06:00:00 15.68333 C 93.8333 % 14.69 C
464 31-07-2016 07:00:00 16.3 C 93.6667 % 15.28 C
465 31-07-2016 08:00:00 17.375 C 90.2500 % 15.76 C
466 31-07-2016 09:00:00 19.04167 C 81.9167 % 15.88 C
467 31-07-2016 10:00:00 19.5 C 79.5833 % 15.88 C
468 31-07-2016 11:00:00 19.88333 C 76.4167 % 15.61 C
469 31-07-2016 12:00:00 20.68333 C 73.0000 % 15.67 C
470 31-07-2016 13:00:00 21.2 C 70.2500 % 15.57 C
471 31-07-2016 14:00:00 21.19167 C 68.1667 % 15.09 C
472 31-07-2016 15:00:00 18.43333 C 80.8333 % 15.08 C
473 31-07-2016 16:00:00 19.60833 C 70.0000 % 13.99 C
474 31-07-2016 17:00:00 19.81667 C 67.3333 % 13.59 C
475 31-07-2016 18:00:00 21.8 C 61.7500 % 14.14 C
Sensor: Nr:Datum:Temp:Feuchte:Taupunkt:
Aussen-T/F 476 31-07-2016 19:00:00 20.525 C 62.3333 % 13.08 C
477 31-07-2016 20:00:00 19.25833 C 68.0000 % 13.21 C
478 31-07-2016 21:00:00 16.79167 C 79.5833 % 13.24 C
479 31-07-2016 22:00:00 15.64167 C 85.0833 % 13.14 C
480 31-07-2016 23:00:00 14.575 C 88.1667 % 12.64 C
481 01-08-2016 00:00:00 13.81667 C 89.2500 % 12.08 C
482 01-08-2016 01:00:00 12.84167 C 90.7500 % 11.37 C
483 01-08-2016 02:00:00 12.34167 C 91.7500 % 11.04 C
484 01-08-2016 03:00:00 11.75833 C 92.5000 % 10.58 C
485 01-08-2016 04:00:00 11.10833 C 93.0833 % 10.03 C
486 01-08-2016 05:00:00 10.63333 C 94.0000 % 9.71 C
487 01-08-2016 06:00:00 10.45 C 94.5833 % 9.62 C
488 01-08-2016 07:00:00 10.55 C 95.0000 % 9.78 C
489 01-08-2016 08:00:00 11.125 C 95.3333 % 10.41 C
490 01-08-2016 09:00:00 12.59167 C 96.0000 % 11.97 C
491 01-08-2016 10:00:00 14.94167 C 92.1667 % 13.68 C
492 01-08-2016 11:00:00 18.64167 C 73.2500 % 13.76 C
493 01-08-2016 12:00:00 21.05 C 64.4167 % 14.08 C
494 01-08-2016 13:00:00 21 C 67.5833 % 14.77 C
495 01-08-2016 14:00:00 21.58333 C 62.6667 % 14.16 C
496 01-08-2016 15:00:00 20.76667 C 73.5833 % 15.88 C
497 01-08-2016 16:00:00 20.64167 C 76.4167 % 16.35 C
498 01-08-2016 17:00:00 24.10833 C 49.6667 % 12.94 C
499 01-08-2016 18:00:00 25.26667 C 47.7500 % 13.39 C
500 01-08-2016 19:00:00 23.88333 C 49.9167 % 12.81 C
Sensor: Nr:Datum:Temp:Feuchte:Taupunkt:
Aussen-T/F 501 01-08-2016 20:00:00 19.75 C 68.7500 % 13.85 C
502 01-08-2016 21:00:00 17.65 C 69.1667 % 11.93 C
503 01-08-2016 22:00:00 16.86667 C 75.7500 % 12.56 C
504 01-08-2016 23:00:00 15.98333 C 80.0833 % 12.55 C
505 02-08-2016 00:00:00 15.88333 C 81.0000 % 12.63 C
506 02-08-2016 01:00:00 15.85833 C 81.5000 % 12.7 C
507 02-08-2016 02:00:00 15.31667 C 83.4167 % 12.52 C
508 02-08-2016 03:00:00 15.24167 C 85.4167 % 12.81 C
509 02-08-2016 04:00:00 15.125 C 89.2500 % 13.37 C
510 02-08-2016 05:00:00 14.79167 C 92.7500 % 13.63 C
511 02-08-2016 06:00:00 14.6 C 93.5833 % 13.58 C
512 02-08-2016 07:00:00 14.81667 C 94.5000 % 13.94 C
513 02-08-2016 08:00:00 15.225 C 95.0000 % 14.43 C
514 02-08-2016 09:00:00 15.725 C 95.0000 % 14.93 C
515 02-08-2016 10:00:00 15.85 C 94.8333 % 15.02 C
516 02-08-2016 11:00:00 15.775 C 94.8333 % 14.95 C
517 02-08-2016 12:00:00 16.10833 C 94.9167 % 15.29 C
518 02-08-2016 13:00:00 16.46667 C 94.5833 % 15.59 C
519 02-08-2016 14:00:00 17.03333 C 94.5000 % 16.14 C
520 02-08-2016 15:00:00 17.33333 C 94.4167 % 16.43 C
521 02-08-2016 16:00:00 17.49167 C 94.0833 % 16.53 C
522 02-08-2016 17:00:00 17.49167 C 94.0833 % 16.53 C
523 02-08-2016 18:00:00 17.4 C 94.0833 % 16.44 C
524 02-08-2016 19:00:00 17.20833 C 93.8333 % 16.21 C
525 02-08-2016 20:00:00 17.1 C 93.6667 % 16.07 C
Sensor: Nr:Datum:Temp:Feuchte:Taupunkt:
Aussen-T/F 526 02-08-2016 21:00:00 16.84167 C 94.6667 % 15.98 C
527 02-08-2016 22:00:00 16.7 C 95.2500 % 15.94 C
528 02-08-2016 23:00:00 16.66667 C 96.0000 % 16.03 C
529 03-08-2016 00:00:00 16.63333 C 96.0000 % 15.99 C
530 03-08-2016 01:00:00 16.75833 C 95.5833 % 16.05 C
531 03-08-2016 02:00:00 17 C 95.3333 % 16.25 C
532 03-08-2016 03:00:00 17.21667 C 95.1667 % 16.44 C
533 03-08-2016 04:00:00 17.35833 C 95.5833 % 16.65 C
534 03-08-2016 05:00:00 17.64167 C 94.9167 % 16.82 C
535 03-08-2016 06:00:00 17.85 C 93.5000 % 16.79 C
536 03-08-2016 07:00:00 17.79167 C 94.5833 % 16.91 C
537 03-08-2016 08:00:00 17.875 C 94.9167 % 17.05 C
538 03-08-2016 09:00:00 18.61667 C 93.3333 % 17.52 C
539 03-08-2016 10:00:00 19.3 C 91.2500 % 17.84 C
540 03-08-2016 11:00:00 19.90833 C 90.9167 % 18.38 C
541 03-08-2016 12:00:00 19.875 C 91.8333 % 18.51 C
542 03-08-2016 13:00:00 19.475 C 91.5833 % 18.07 C
543 03-08-2016 14:00:00 19 C 93.7500 % 17.97 C
544 03-08-2016 15:00:00 19 C 94.8333 % 18.15 C
545 03-08-2016 16:00:00 19.70833 C 93.6667 % 18.66 C
546 03-08-2016 17:00:00 20.25 C 92.6667 % 19.02 C
547 03-08-2016 18:00:00 19.875 C 93.2500 % 18.75 C
548 03-08-2016 19:00:00 19.63333 C 94.0000 % 18.64 C
549 03-08-2016 20:00:00 19.14167 C 94.7500 % 18.28 C
550 03-08-2016 21:00:00 18.675 C 95.0000 % 17.86 C
Sensor: Nr:Datum:Temp:Feuchte:Taupunkt:
Aussen-T/F 551 03-08-2016 22:00:00 18.4 C 95.8333 % 17.72 C
552 03-08-2016 23:00:00 18.25833 C 96.0000 % 17.61 C
553 04-08-2016 00:00:00 18.1 C 96.0000 % 17.45 C
554 04-08-2016 01:00:00 17.94167 C 96.0000 % 17.29 C
555 04-08-2016 02:00:00 17.59167 C 96.1667 % 16.97 C
556 04-08-2016 03:00:00 17.03333 C 96.1667 % 16.42 C
557 04-08-2016 04:00:00 17.00833 C 97.0000 % 16.53 C
558 04-08-2016 05:00:00 17.11667 C 97.0000 % 16.64 C
559 04-08-2016 06:00:00 17.25 C 97.0000 % 16.77 C
560 04-08-2016 07:00:00 17.13333 C 97.0000 % 16.65 C
561 04-08-2016 08:00:00 17.10833 C 97.0000 % 16.63 C
562 04-08-2016 09:00:00 17.65833 C 97.0000 % 17.18 C
563 04-08-2016 10:00:00 18.475 C 97.0000 % 17.99 C
564 04-08-2016 11:00:00 19.15833 C 96.9167 % 18.66 C
565 04-08-2016 12:00:00 19.94167 C 93.8333 % 18.92 C
566 04-08-2016 13:00:00 20.6 C 90.8333 % 19.05 C
567 04-08-2016 14:00:00 20.44167 C 90.1667 % 18.77 C
568 04-08-2016 15:00:00 19.81667 C 91.6667 % 18.42 C
569 04-08-2016 16:00:00 19.81667 C 90.1667 % 18.16 C
570 04-08-2016 17:00:00 18.75833 C 92.1667 % 17.46 C
571 04-08-2016 18:00:00 18.41667 C 93.8333 % 17.41 C
572 04-08-2016 19:00:00 18.05833 C 93.3333 % 16.97 C
573 04-08-2016 20:00:00 17.39167 C 93.6667 % 16.36 C
574 04-08-2016 21:00:00 16.45833 C 93.8333 % 15.46 C
575 04-08-2016 22:00:00 15.79167 C 94.5000 % 14.91 C
Sensor: Nr:Datum:Temp:Feuchte:Taupunkt:
Aussen-T/F 576 04-08-2016 23:00:00 15.33333 C 95.0000 % 14.54 C
577 05-08-2016 00:00:00 14.93333 C 95.0000 % 14.14 C
578 05-08-2016 01:00:00 14.43333 C 95.5833 % 13.74 C
579 05-08-2016 02:00:00 14.15 C 95.8333 % 13.5 C
580 05-08-2016 03:00:00 13.79167 C 96.0000 % 13.17 C
581 05-08-2016 04:00:00 13.625 C 96.0000 % 13 C
582 05-08-2016 05:00:00 13.5 C 96.2500 % 12.91 C
583 05-08-2016 06:00:00 13.375 C 96.3333 % 12.8 C
584 05-08-2016 07:00:00 13.29167 C 96.8333 % 12.8 C
585 05-08-2016 08:00:00 13.74167 C 97.0000 % 13.27 C
586 05-08-2016 09:00:00 14.65833 C 95.5833 % 13.96 C
587 05-08-2016 10:00:00 16.71667 C 88.1667 % 14.75 C
588 05-08-2016 11:00:00 17.6 C 82.3333 % 14.55 C
589 05-08-2016 12:00:00 18.44167 C 80.4167 % 15.01 C
590 05-08-2016 13:00:00 19.68333 C 79.3333 % 16.01 C
591 05-08-2016 14:00:00 19.25 C 86.3333 % 16.91 C
592 05-08-2016 15:00:00 19.35 C 85.4167 % 16.84 C
593 05-08-2016 16:00:00 21.79167 C 76.7500 % 17.53 C
594 05-08-2016 17:00:00 21.1 C 78.0833 % 17.13 C
595 05-08-2016 18:00:00 19.79167 C 71.0000 % 14.38 C
596 05-08-2016 19:00:00 19.16667 C 78.1667 % 15.27 C
597 05-08-2016 20:00:00 17.90833 C 86.5833 % 15.64 C
598 05-08-2016 21:00:00 16.84167 C 88.2500 % 14.89 C
599 05-08-2016 22:00:00 15.85833 C 90.8333 % 14.36 C
600 05-08-2016 23:00:00 15.01667 C 93.0833 % 13.91 C
Sensor: Nr:Datum:Temp:Feuchte:Taupunkt:
Aussen-T/F 601 06-08-2016 00:00:00 14.525 C 94.2500 % 13.61 C
602 06-08-2016 01:00:00 14.34167 C 95.0833 % 13.57 C
603 06-08-2016 02:00:00 14.63333 C 95.9167 % 13.99 C
604 06-08-2016 03:00:00 14.79167 C 96.0000 % 14.16 C
605 06-08-2016 04:00:00 14.35 C 95.0000 % 13.56 C
606 06-08-2016 05:00:00 13.55833 C 95.1667 % 12.8 C
607 06-08-2016 06:00:00 13.24167 C 96.0000 % 12.62 C
608 06-08-2016 07:00:00 13.65833 C 96.3333 % 13.09 C
609 06-08-2016 08:00:00 14.54167 C 96.5833 % 14 C
610 06-08-2016 09:00:00 16 C 92.3333 % 14.76 C
611 06-08-2016 10:00:00 17.75833 C 83.2500 % 14.88 C
612 06-08-2016 11:00:00 19.06667 C 77.5000 % 15.04 C
613 06-08-2016 12:00:00 19.975 C 79.3333 % 16.29 C
614 06-08-2016 13:00:00 19.95833 C 81.3333 % 16.66 C
615 06-08-2016 14:00:00 20.8 C 81.5833 % 17.53 C
616 06-08-2016 15:00:00 20.89167 C 83.1667 % 17.93 C
617 06-08-2016 16:00:00 21.35 C 80.0833 % 17.77 C
618 06-08-2016 17:00:00 21.14167 C 81.0000 % 17.75 C
619 06-08-2016 18:00:00 23.025 C 69.9167 % 17.24 C
620 06-08-2016 19:00:00 22.59167 C 68.7500 % 16.56 C
621 06-08-2016 20:00:00 20.15833 C 76.5833 % 15.91 C
622 06-08-2016 21:00:00 18.275 C 83.7500 % 15.48 C
623 06-08-2016 22:00:00 17.1 C 86.6667 % 14.86 C
624 06-08-2016 23:00:00 16.45 C 87.8333 % 14.43 C
625 07-08-2016 00:00:00 15.35833 C 90.5000 % 13.81 C
Sensor: Nr:Datum:Temp:Feuchte:Taupunkt:
Aussen-T/F 626 07-08-2016 01:00:00 14.4 C 93.0833 % 13.3 C
627 07-08-2016 02:00:00 13.84167 C 94.0000 % 12.89 C
628 07-08-2016 03:00:00 13.41667 C 94.9167 % 12.62 C
629 07-08-2016 04:00:00 12.84167 C 95.0000 % 12.06 C
630 07-08-2016 05:00:00 12.35833 C 95.0000 % 11.58 C
631 07-08-2016 06:00:00 12.05833 C 95.5833 % 11.37 C
632 07-08-2016 07:00:00 12.775 C 96.0000 % 12.15 C
633 07-08-2016 08:00:00 13.3 C 96.0000 % 12.68 C
634 07-08-2016 09:00:00 13.96667 C 96.1667 % 13.37 C
635 07-08-2016 10:00:00 15.79167 C 96.0000 % 15.16 C
636 07-08-2016 11:00:00 19.18333 C 81.3333 % 15.91 C
637 07-08-2016 12:00:00 20.74167 C 75.0833 % 16.17 C
638 07-08-2016 13:00:00 22.08333 C 69.1667 % 16.17 C
639 07-08-2016 14:00:00 23.31667 C 65.3333 % 16.45 C
640 07-08-2016 15:00:00 24.86667 C 61.9167 % 17.07 C
641 07-08-2016 16:00:00 27.71667 C 56.5000 % 18.28 C
642 07-08-2016 17:00:00 28.71667 C 56.3333 % 19.16 C
643 07-08-2016 18:00:00 28.69167 C 58.9167 % 19.86 C
644 07-08-2016 19:00:00 26.925 C 65.4167 % 19.89 C
645 07-08-2016 20:00:00 23.24167 C 73.7500 % 18.29 C
646 07-08-2016 21:00:00 20.73333 C 79.1667 % 16.99 C
647 07-08-2016 22:00:00 19.33333 C 82.9167 % 16.36 C
648 07-08-2016 23:00:00 18.45833 C 86.2500 % 16.12 C
649 08-08-2016 00:00:00 17.64167 C 89.1667 % 15.84 C
650 08-08-2016 01:00:00 17.48333 C 90.1667 % 15.85 C
Sensor: Nr:Datum:Temp:Feuchte:Taupunkt:
Aussen-T/F 651 08-08-2016 02:00:00 17.85833 C 89.0000 % 16.02 C
652 08-08-2016 03:00:00 17.98333 C 88.0000 % 15.97 C
653 08-08-2016 04:00:00 17.13333 C 89.1667 % 15.33 C
654 08-08-2016 05:00:00 16.35833 C 91.1667 % 14.91 C
655 08-08-2016 06:00:00 16.35 C 92.8333 % 15.19 C
656 08-08-2016 07:00:00 17.14167 C 90.9167 % 15.65 C
657 08-08-2016 08:00:00 17.9 C 90.2500 % 16.28 C
658 08-08-2016 09:00:00 19.18333 C 84.8333 % 16.57 C
659 08-08-2016 10:00:00 20.24167 C 79.0833 % 16.5 C
660 08-08-2016 11:00:00 21.55 C 59.1667 % 13.24 C
661 08-08-2016 12:00:00 22.025 C 55.6667 % 12.76 C
662 08-08-2016 13:00:00 22.625 C 58.2500 % 14.01 C
663 08-08-2016 14:00:00 22.64167 C 63.8333 % 15.45 C
664 08-08-2016 15:00:00 22.8 C 62.5833 % 15.29 C
665 08-08-2016 16:00:00 24.60833 C 54.4167 % 14.8 C
666 08-08-2016 17:00:00 21.15 C 66.5000 % 14.67 C
667 08-08-2016 18:00:00 20.24167 C 69.4167 % 14.47 C
668 08-08-2016 19:00:00 19.75833 C 72.4167 % 14.66 C
669 08-08-2016 20:00:00 19.55833 C 72.7500 % 14.54 C
670 08-08-2016 21:00:00 17.09167 C 82.6667 % 14.12 C
671 08-08-2016 22:00:00 16.49167 C 86.0000 % 14.14 C
672 08-08-2016 23:00:00 16.30833 C 85.8333 % 13.93 C
673 09-08-2016 00:00:00 16.725 C 78.5833 % 12.99 C
674 09-08-2016 01:00:00 16.00833 C 80.3333 % 12.63 C
675 09-08-2016 02:00:00 14.95 C 82.6667 % 12.03 C
Sensor: Nr:Datum:Temp:Feuchte:Taupunkt:
Aussen-T/F 676 09-08-2016 03:00:00 14.55 C 84.7500 % 12.01 C
677 09-08-2016 04:00:00 14.4 C 85.2500 % 11.96 C
678 09-08-2016 05:00:00 14.25833 C 85.2500 % 11.82 C
679 09-08-2016 06:00:00 13.8 C 86.6667 % 11.62 C
680 09-08-2016 07:00:00 13.39167 C 88.2500 % 11.49 C
681 09-08-2016 08:00:00 14.13333 C 89.2500 % 12.39 C
682 09-08-2016 09:00:00 15.325 C 83.2500 % 12.5 C
683 09-08-2016 10:00:00 16.475 C 75.7500 % 12.18 C
684 09-08-2016 11:00:00 17.83333 C 66.3333 % 11.48 C
685 09-08-2016 12:00:00 18.575 C 60.9167 % 10.89 C
686 09-08-2016 13:00:00 19.25833 C 53.8333 % 9.68 C
687 09-08-2016 14:00:00 19.1 C 54.7500 % 9.79 C
688 09-08-2016 15:00:00 19.99167 C 53.0000 % 10.13 C
689 09-08-2016 16:00:00 21.55833 C 44.7500 % 9.05 C
690 09-08-2016 17:00:00 20.45833 C 53.3333 % 10.65 C
691 09-08-2016 18:00:00 17.75 C 63.1667 % 10.66 C
692 09-08-2016 19:00:00 17.15 C 61.8333 % 9.78 C
693 09-08-2016 20:00:00 16.525 C 65.0000 % 9.93 C
694 09-08-2016 21:00:00 14.60833 C 76.9167 % 10.61 C
695 09-08-2016 22:00:00 14.26667 C 77.7500 % 10.44 C
696 09-08-2016 23:00:00 13.225 C 82.0833 % 10.24 C
697 10-08-2016 00:00:00 12.16667 C 85.5000 % 9.81 C
698 10-08-2016 01:00:00 11.4 C 86.5000 % 9.23 C
699 10-08-2016 02:00:00 10.36667 C 89.1667 % 8.66 C
700 10-08-2016 03:00:00 9.88333 C 91.1667 % 8.51 C
Sensor: Nr:Datum:Temp:Feuchte:Taupunkt:
Aussen-T/F 701 10-08-2016 04:00:00 10.15833 C 92.8333 % 9.05 C
702 10-08-2016 05:00:00 10.39167 C 92.1667 % 9.18 C
703 10-08-2016 06:00:00 10.31667 C 92.4167 % 9.14 C
704 10-08-2016 07:00:00 10.58333 C 93.0000 % 9.5 C
705 10-08-2016 08:00:00 11.46667 C 91.0000 % 10.05 C
706 10-08-2016 09:00:00 13.05 C 85.8333 % 10.74 C
707 10-08-2016 10:00:00 12.63333 C 84.6667 % 10.12 C
708 10-08-2016 11:00:00 11.64167 C 90.9167 % 10.21 C
709 10-08-2016 12:00:00 12.90833 C 87.6667 % 10.91 C
710 10-08-2016 13:00:00 14.325 C 78.2500 % 10.59 C
711 10-08-2016 14:00:00 15.45 C 71.0000 % 10.22 C
712 10-08-2016 15:00:00 16.58333 C 65.0000 % 9.98 C
713 10-08-2016 16:00:00 17.99167 C 58.4167 % 9.72 C
714 10-08-2016 17:00:00 18.80833 C 49.4167 % 8 C
715 10-08-2016 18:00:00 17.6 C 56.0000 % 8.73 C
716 10-08-2016 19:00:00 15.95 C 64.0833 % 9.17 C
717 10-08-2016 20:00:00 14.6 C 70.5833 % 9.32 C
718 10-08-2016 21:00:00 12.91667 C 76.3333 % 8.86 C
719 10-08-2016 22:00:00 11.23333 C 82.3333 % 8.34 C
720 10-08-2016 23:00:00 10.16667 C 86.3333 % 7.99 C
721 11-08-2016 00:00:00 9.15833 C 89.4167 % 7.51 C
722 11-08-2016 01:00:00 8.475 C 91.5000 % 7.17 C
723 11-08-2016 02:00:00 8.175 C 92.9167 % 7.1 C
724 11-08-2016 03:00:00 7.86667 C 93.4167 % 6.87 C
725 11-08-2016 04:00:00 7.41667 C 94.0000 % 6.52 C
Sensor: Nr:Datum:Temp:Feuchte:Taupunkt:
Aussen-T/F 726 11-08-2016 05:00:00 7.075 C 94.1667 % 6.2 C
727 11-08-2016 06:00:00 6.9 C 95.0000 % 6.16 C
728 11-08-2016 07:00:00 7.16667 C 95.2500 % 6.46 C
729 11-08-2016 08:00:00 8.725 C 95.7500 % 8.09 C
730 11-08-2016 09:00:00 10.54167 C 91.8333 % 9.27 C
731 11-08-2016 10:00:00 12.49167 C 85.5000 % 10.13 C
732 11-08-2016 11:00:00 14.58333 C 72.2500 % 9.65 C
733 11-08-2016 12:00:00 16.14167 C 61.7500 % 8.8 C
734 11-08-2016 13:00:00 17.40833 C 62.0833 % 10.08 C
735 11-08-2016 14:00:00 17.95833 C 60.5833 % 10.23 C
736 11-08-2016 15:00:00 18.3 C 58.7500 % 10.09 C
737 11-08-2016 16:00:00 18.34167 C 60.0000 % 10.45 C
738 11-08-2016 17:00:00 17.36667 C 65.0000 % 10.73 C
739 11-08-2016 18:00:00 15.50833 C 82.4167 % 12.53 C
740 11-08-2016 19:00:00 13.76667 C 90.0000 % 12.16 C
741 11-08-2016 20:00:00 13.08333 C 92.3333 % 11.87 C
742 11-08-2016 21:00:00 12.8 C 93.0833 % 11.71 C
743 11-08-2016 22:00:00 12.89167 C 93.9167 % 11.94 C
744 11-08-2016 23:00:00 13.05833 C 94.0833 % 12.13 C

Maximal/Minimal-Werte vom 12.07.2016 - 11.08.2016

Sensor Min Max Avg
Temp
(Aussen-T/F)
6.8 °C
11-08-2016  06:55:00
35.4 °C
20-07-2016  17:10:00
18.66 °C
Feuchte
(Aussen-T/F)
40 %
18-07-2016  18:45:00
97 %
14-07-2016  08:00:00
82.89 %
Taupunkt
(Aussen-T/F)
6.16 C
11-08-2016  06:00:00
23.19 C
20-07-2016  17:00:00
15.42 C

Die Daten stammen von einer Davis Vantage Pro 2 Wetter-Station und werden unter Linux mit der Software wview2wettercgi und aufbereitet. Alle Angaben erfolgen ohne Gewähr für ihre Vollständigkeit oder Richtigkeit.
Kontakt: Rainer Krienke krienke@uni-koblenz.de . Meine Webseiten an der Uni Koblenz oder privat.
Version: $Revision: 0.78 $